createdAt,value
2018-09-28T00:01:10.105Z,14.59
2018-09-28T00:03:39.704Z,14.57
2018-09-28T00:06:09.293Z,14.56
2018-09-28T00:08:40.069Z,14.54
2018-09-28T00:11:10.139Z,14.56
2018-09-28T00:13:39.737Z,14.57
2018-09-28T00:16:09.295Z,14.56
2018-09-28T00:18:38.841Z,14.54
2018-09-28T00:21:08.904Z,14.57
2018-09-28T00:23:38.447Z,14.55
2018-09-28T00:26:08.437Z,14.47
2018-09-28T00:28:38.098Z,14.42
2018-09-28T00:31:07.808Z,14.47
2018-09-28T00:33:38.244Z,14.45
2018-09-28T00:36:07.893Z,14.48
2018-09-28T00:38:37.450Z,14.45
2018-09-28T00:41:07.301Z,14.45
2018-09-28T00:43:36.841Z,14.40
2018-09-28T00:46:06.406Z,14.32
2018-09-28T00:48:36.007Z,14.27
2018-09-28T00:51:05.636Z,14.20
2018-09-28T00:53:35.189Z,14.15
2018-09-28T00:56:05.174Z,14.08
2018-09-28T00:58:34.751Z,14.04
2018-09-28T01:01:04.340Z,14.01
2018-09-28T01:03:33.891Z,13.95
2018-09-28T01:06:03.412Z,13.96
2018-09-28T01:08:32.960Z,13.91
2018-09-28T01:11:02.507Z,13.87
2018-09-28T01:13:32.090Z,13.83
2018-09-28T01:16:01.985Z,13.82
2018-09-28T01:18:31.568Z,13.72
2018-09-28T01:21:01.139Z,13.62
2018-09-28T01:23:30.684Z,13.52
2018-09-28T01:26:00.234Z,13.54
2018-09-28T01:28:29.866Z,13.54
2018-09-28T01:30:59.454Z,13.45
2018-09-28T01:33:29.017Z,13.18
2018-09-28T01:35:58.619Z,13.04
2018-09-28T01:38:28.197Z,13.11
2018-09-28T01:40:57.764Z,13.19
2018-09-28T01:43:27.310Z,13.04
2018-09-28T01:45:56.961Z,12.97
2018-09-28T01:48:26.588Z,13.00
2018-09-28T01:50:56.151Z,12.90
2018-09-28T01:53:25.714Z,12.84
2018-09-28T01:55:55.439Z,12.82
2018-09-28T01:58:25.040Z,12.75
2018-09-28T02:00:54.614Z,12.80
2018-09-28T02:03:24.187Z,12.78
2018-09-28T02:05:53.779Z,12.80
2018-09-28T02:08:23.373Z,12.82
2018-09-28T02:10:53.119Z,12.81
2018-09-28T02:13:22.698Z,12.83
2018-09-28T02:15:52.345Z,12.87
2018-09-28T02:18:22.047Z,12.90
2018-09-28T02:20:51.594Z,12.92
2018-09-28T02:23:21.247Z,12.86
2018-09-28T02:25:50.797Z,12.80
2018-09-28T02:28:20.455Z,12.82
2018-09-28T02:30:50.215Z,12.88
2018-09-28T02:33:19.793Z,12.87
2018-09-28T02:35:49.489Z,12.75
2018-09-28T02:38:19.104Z,12.60
2018-09-28T02:40:48.670Z,12.56
2018-09-28T02:43:18.199Z,12.54
2018-09-28T02:45:47.905Z,12.54
2018-09-28T02:48:17.642Z,12.58
2018-09-28T02:50:47.271Z,12.58
2018-09-28T02:53:19.595Z,12.67
2018-09-28T02:55:50.411Z,12.67
2018-09-28T02:58:20.035Z,12.72
2018-09-28T03:00:49.623Z,12.76
2018-09-28T03:03:19.331Z,12.78
2018-09-28T03:05:48.848Z,12.83
2018-09-28T03:08:18.405Z,12.77
2018-09-28T03:10:47.941Z,12.74
2018-09-28T03:13:17.503Z,12.72
2018-09-28T03:15:47.061Z,12.64
2018-09-28T03:18:16.638Z,12.58
2018-09-28T03:20:46.246Z,12.57
2018-09-28T03:23:15.780Z,12.53
2018-09-28T03:25:45.343Z,12.50
2018-09-28T03:28:14.906Z,12.49
2018-09-28T03:30:44.566Z,12.54
2018-09-28T03:33:14.181Z,12.42
2018-09-28T03:35:43.775Z,12.42
2018-09-28T03:38:13.317Z,12.45
2018-09-28T03:40:43.197Z,12.41
2018-09-28T03:43:12.782Z,12.46
2018-09-28T03:45:42.474Z,12.49
2018-09-28T03:48:12.104Z,12.51
2018-09-28T03:50:41.682Z,12.58
2018-09-28T03:53:11.256Z,12.61
2018-09-28T03:55:40.826Z,12.67
2018-09-28T03:58:10.370Z,12.74
2018-09-28T04:00:39.936Z,12.80
2018-09-28T04:03:09.561Z,12.84
2018-09-28T04:05:39.073Z,12.83
2018-09-28T04:08:08.714Z,12.78
2018-09-28T04:10:38.304Z,12.77
2018-09-28T04:13:07.886Z,12.80
2018-09-28T04:15:37.489Z,12.82
2018-09-28T04:18:07.073Z,12.81
2018-09-28T04:20:36.816Z,12.82
2018-09-28T04:23:06.393Z,12.80
2018-09-28T04:25:35.949Z,12.84
2018-09-28T04:28:05.577Z,12.88
2018-09-28T04:30:35.156Z,12.90
2018-09-28T04:33:04.712Z,12.92
2018-09-28T04:35:34.278Z,12.93
2018-09-28T04:38:03.870Z,12.93
2018-09-28T04:40:33.482Z,12.98
2018-09-28T04:43:03.041Z,13.02
2018-09-28T04:45:32.683Z,13.02
2018-09-28T04:48:02.343Z,13.06
2018-09-28T04:50:31.907Z,13.10
2018-09-28T04:53:01.493Z,13.06
2018-09-28T04:55:31.091Z,13.05
2018-09-28T04:58:00.723Z,13.07
2018-09-28T05:00:30.370Z,13.12
2018-09-28T05:03:00.029Z,13.10
2018-09-28T05:05:29.703Z,13.12
2018-09-28T05:07:59.284Z,13.14
2018-09-28T05:10:28.857Z,13.13
2018-09-28T05:12:58.472Z,13.12
2018-09-28T05:15:28.232Z,13.17
2018-09-28T05:17:57.781Z,13.20
2018-09-28T05:20:27.375Z,13.24
2018-09-28T05:22:57.951Z,13.27
2018-09-28T05:25:27.993Z,13.30
2018-09-28T05:27:57.737Z,13.34
2018-09-28T05:30:27.322Z,13.37
2018-09-28T05:32:57.055Z,13.39
2018-09-28T05:35:26.682Z,13.37
2018-09-28T05:37:56.238Z,13.30
2018-09-28T05:40:25.828Z,13.28
2018-09-28T05:42:55.595Z,13.22
2018-09-28T05:45:25.189Z,13.28
2018-09-28T05:47:55.425Z,13.30
2018-09-28T05:50:24.948Z,13.25
2018-09-28T05:52:54.489Z,13.16
2018-09-28T05:55:24.034Z,13.17
2018-09-28T05:57:57.695Z,13.23
2018-09-28T06:00:32.520Z,13.26
2018-09-28T06:03:06.347Z,13.28
2018-09-28T06:05:40.462Z,13.34
2018-09-28T06:08:10.236Z,13.32
2018-09-28T06:10:39.808Z,13.34
2018-09-28T06:13:09.481Z,13.39
2018-09-28T06:15:38.977Z,13.41
2018-09-28T06:18:08.527Z,13.43
2018-09-28T06:20:38.123Z,13.46
2018-09-28T06:23:07.696Z,13.50
2018-09-28T06:25:37.562Z,13.51
2018-09-28T06:28:07.356Z,13.51
2018-09-28T06:30:36.997Z,13.42
2018-09-28T06:33:06.874Z,13.31
2018-09-28T06:35:36.503Z,13.30
2018-09-28T06:38:06.224Z,13.21
2018-09-28T06:40:36.026Z,13.30
2018-09-28T06:43:05.593Z,13.21
2018-09-28T06:45:35.232Z,13.21
2018-09-28T06:48:04.855Z,13.20
2018-09-28T06:53:12.457Z,13.30
2018-09-28T06:55:42.248Z,13.34
2018-09-28T06:58:11.832Z,13.36
2018-09-28T07:00:41.864Z,13.29
2018-09-28T07:03:11.426Z,13.30
2018-09-28T07:05:41.062Z,13.35
2018-09-28T07:08:10.824Z,13.40
2018-09-28T07:10:40.380Z,13.46
2018-09-28T07:13:10.081Z,13.46
2018-09-28T07:15:39.719Z,13.46
2018-09-28T07:18:09.312Z,13.46
2018-09-28T07:20:39.055Z,13.47
2018-09-28T07:23:08.947Z,13.48
2018-09-28T07:25:38.485Z,13.46
2018-09-28T07:28:08.155Z,13.45
2018-09-28T07:30:37.741Z,13.42
2018-09-28T07:33:11.488Z,13.41
2018-09-28T07:35:41.092Z,13.38
2018-09-28T07:38:10.888Z,13.35
2018-09-28T07:40:40.439Z,13.39
2018-09-28T07:43:10.005Z,13.33
2018-09-28T07:45:39.557Z,13.37
2018-09-28T07:48:09.204Z,13.39
2018-09-28T07:50:38.883Z,13.40
2018-09-28T07:53:08.425Z,13.41
2018-09-28T07:55:38.115Z,13.44
2018-09-28T07:58:08.982Z,13.48
2018-09-28T08:00:38.527Z,13.47
2018-09-28T08:03:08.185Z,13.50
2018-09-28T08:05:38.437Z,13.49
2018-09-28T08:08:08.310Z,13.52
2018-09-28T08:10:37.816Z,13.56
2018-09-28T08:13:07.410Z,13.55
2018-09-28T08:15:36.969Z,13.57
2018-09-28T08:18:07.808Z,13.59
2018-09-28T08:20:37.326Z,13.59
2018-09-28T08:23:06.913Z,13.58
2018-09-28T08:25:36.609Z,13.53
2018-09-28T08:28:06.471Z,13.54
2018-09-28T08:30:36.369Z,13.54
2018-09-28T08:33:06.138Z,13.52
2018-09-28T08:35:35.695Z,13.53
2018-09-28T08:38:05.519Z,13.52
2018-09-28T08:40:35.856Z,13.49
2018-09-28T08:43:05.605Z,13.51
2018-09-28T08:45:35.184Z,13.48
2018-09-28T08:48:04.742Z,13.54
2018-09-28T08:50:34.443Z,13.55
2018-09-28T08:53:03.981Z,13.55
2018-09-28T08:55:33.708Z,13.52
2018-09-28T08:58:03.334Z,13.48
2018-09-28T09:00:33.097Z,13.45
2018-09-28T09:03:02.598Z,13.44
2018-09-28T09:05:32.277Z,13.36
2018-09-28T09:08:01.836Z,13.36
2018-09-28T09:10:31.410Z,13.32
2018-09-28T09:13:00.986Z,13.33
2018-09-28T09:15:30.582Z,13.35
2018-09-28T09:18:00.169Z,13.33
2018-09-28T09:20:30.097Z,13.31
2018-09-28T09:22:59.655Z,13.29
2018-09-28T09:25:29.250Z,13.29
2018-09-28T09:27:58.774Z,13.27
2018-09-28T09:30:28.305Z,13.28
2018-09-28T09:32:57.973Z,13.22
2018-09-28T09:35:27.656Z,13.25
2018-09-28T09:37:57.225Z,13.20
2018-09-28T09:40:27.008Z,13.24
2018-09-28T09:42:56.526Z,13.23
2018-09-28T09:45:26.139Z,13.22
2018-09-28T09:47:55.699Z,13.12
2018-09-28T09:50:25.217Z,13.08
2018-09-28T09:52:54.823Z,13.01
2018-09-28T09:55:24.542Z,12.96
2018-09-28T09:57:54.370Z,12.97
2018-09-28T10:00:29.582Z,12.99
2018-09-28T10:03:02.242Z,13.04
2018-09-28T10:05:32.217Z,13.07
2018-09-28T10:08:02.977Z,13.08
2018-09-28T10:10:32.529Z,13.04
2018-09-28T10:13:02.080Z,13.13
2018-09-28T10:15:31.647Z,13.16
2018-09-28T10:18:01.201Z,13.20
2018-09-28T10:20:30.752Z,13.27
2018-09-28T10:23:00.363Z,13.27
2018-09-28T10:25:29.979Z,13.31
2018-09-28T10:28:00.053Z,13.32
2018-09-28T10:30:29.766Z,13.33
2018-09-28T10:32:59.324Z,13.39
2018-09-28T10:35:28.859Z,13.42
2018-09-28T10:37:58.547Z,13.42
2018-09-28T10:40:28.653Z,13.49
2018-09-28T10:42:58.343Z,13.46
2018-09-28T10:45:28.007Z,13.48
2018-09-28T10:47:57.655Z,13.48
2018-09-28T10:50:27.250Z,13.51
2018-09-28T10:52:56.960Z,13.52
2018-09-28T10:55:26.562Z,13.50
2018-09-28T10:57:56.157Z,13.55
2018-09-28T11:00:25.879Z,13.56
2018-09-28T11:02:55.567Z,13.61
2018-09-28T11:05:25.111Z,13.65
2018-09-28T11:07:54.664Z,13.64
2018-09-28T11:10:24.265Z,13.64
2018-09-28T11:12:53.985Z,13.70
2018-09-28T11:15:23.638Z,13.73
2018-09-28T11:17:54.396Z,13.80
2018-09-28T11:20:23.919Z,13.82
2018-09-28T11:22:53.566Z,13.92
2018-09-28T11:25:23.411Z,13.94
2018-09-28T11:27:52.958Z,13.98
2018-09-28T11:30:23.676Z,14.00
2018-09-28T11:32:53.432Z,14.02
2018-09-28T11:35:23.058Z,13.99
2018-09-28T11:37:52.825Z,14.03
2018-09-28T11:40:22.783Z,14.13
2018-09-28T11:42:52.351Z,14.18
2018-09-28T11:45:21.993Z,14.23
2018-09-28T11:47:51.752Z,14.33
2018-09-28T11:50:21.312Z,14.38
2018-09-28T11:52:50.963Z,14.42
2018-09-28T11:55:20.534Z,14.42
2018-09-28T11:57:50.153Z,14.42
2018-09-28T12:00:19.781Z,14.42
2018-09-28T12:02:49.292Z,14.43
2018-09-28T12:05:18.912Z,14.49
2018-09-28T12:07:48.544Z,14.54
2018-09-28T12:10:18.128Z,14.57
2018-09-28T12:12:47.850Z,14.58
2018-09-28T12:15:17.537Z,14.65
2018-09-28T12:17:47.250Z,14.71
2018-09-28T12:20:16.822Z,14.80
2018-09-28T12:22:46.439Z,14.87
2018-09-28T12:25:16.043Z,14.88
2018-09-28T12:27:45.665Z,14.91
2018-09-28T12:30:15.757Z,14.94
2018-09-28T12:32:45.546Z,15.03
2018-09-28T12:35:15.167Z,15.06
2018-09-28T12:37:44.707Z,15.12
2018-09-28T12:40:14.256Z,15.18
2018-09-28T12:42:43.848Z,15.24
2018-09-28T12:45:13.896Z,15.29
2018-09-28T12:47:43.591Z,15.24
2018-09-28T12:50:13.704Z,15.17
2018-09-28T12:52:43.586Z,15.15
2018-09-28T12:55:13.242Z,15.14
2018-09-28T12:57:42.831Z,15.08
2018-09-28T13:00:12.492Z,15.11
2018-09-28T13:02:42.260Z,15.15
2018-09-28T13:05:12.121Z,15.23
2018-09-28T13:07:41.689Z,15.31
2018-09-28T13:10:12.434Z,15.39
2018-09-28T13:12:42.128Z,15.48
2018-09-28T13:15:12.105Z,15.52
2018-09-28T13:17:41.715Z,15.49
2018-09-28T13:20:11.589Z,15.45
2018-09-28T13:22:41.305Z,15.44
2018-09-28T13:25:10.987Z,15.41
2018-09-28T13:27:40.595Z,15.37
2018-09-28T13:30:10.529Z,15.33
2018-09-28T13:32:40.369Z,15.33
2018-09-28T13:35:10.029Z,15.37
2018-09-28T13:37:40.787Z,15.36
2018-09-28T13:40:11.021Z,15.40
2018-09-28T13:42:40.592Z,15.39
2018-09-28T13:45:10.407Z,15.42
2018-09-28T13:47:40.099Z,15.41
2018-09-28T13:50:09.679Z,15.48
2018-09-28T13:52:39.502Z,15.49
2018-09-28T13:55:09.806Z,15.48
2018-09-28T13:57:43.513Z,15.38
2018-09-28T14:00:13.497Z,15.39
2018-09-28T14:02:43.242Z,15.46
2018-09-28T14:05:12.934Z,15.51
2018-09-28T14:07:42.516Z,15.52
2018-09-28T14:10:12.073Z,15.55
2018-09-28T14:12:41.913Z,15.62
2018-09-28T14:15:12.050Z,15.53
2018-09-28T14:17:41.742Z,15.67
2018-09-28T14:20:11.335Z,15.71
2018-09-28T14:22:41.746Z,15.75
2018-09-28T14:25:11.467Z,15.80
2018-09-28T14:27:41.045Z,15.82
2018-09-28T14:30:10.691Z,15.90
2018-09-28T14:32:40.460Z,16.01
2018-09-28T14:35:11.111Z,16.08
2018-09-28T14:37:40.795Z,16.10
2018-09-28T14:40:10.846Z,16.08
2018-09-28T14:42:40.781Z,16.17
2018-09-28T14:45:10.616Z,16.21
2018-09-28T14:47:41.894Z,16.24
2018-09-28T14:50:11.609Z,16.26
2018-09-28T14:52:41.423Z,16.35
2018-09-28T14:55:11.497Z,16.30
2018-09-28T14:57:41.049Z,16.19
2018-09-28T15:00:11.072Z,16.12
2018-09-28T15:02:40.811Z,16.07
2018-09-28T15:05:10.867Z,16.00
2018-09-28T15:07:40.440Z,16.03
2018-09-28T15:10:10.212Z,16.10
2018-09-28T15:12:41.075Z,16.12
2018-09-28T15:15:10.808Z,16.09
2018-09-28T15:17:40.576Z,16.04
2018-09-28T15:20:10.485Z,15.99
2018-09-28T15:22:40.036Z,15.98
2018-09-28T15:25:09.653Z,15.95
2018-09-28T15:27:39.264Z,15.88
2018-09-28T15:30:09.539Z,15.77
2018-09-28T15:32:39.339Z,15.76
2018-09-28T15:35:09.309Z,15.80
2018-09-28T15:37:39.091Z,15.73
2018-09-28T15:40:10.189Z,15.74
2018-09-28T15:42:39.784Z,15.71
2018-09-28T15:45:09.329Z,15.63
2018-09-28T15:47:38.919Z,15.62
2018-09-28T15:50:08.645Z,15.66
2018-09-28T15:52:38.258Z,15.66
2018-09-28T15:55:08.791Z,15.62
2018-09-28T15:57:39.403Z,15.62
2018-09-28T16:00:09.553Z,15.56
2018-09-28T16:02:39.213Z,15.52
2018-09-28T16:05:09.481Z,15.55
2018-09-28T16:07:39.041Z,15.56
2018-09-28T16:10:08.643Z,15.47
2018-09-28T16:12:38.220Z,15.53
2018-09-28T16:15:07.835Z,15.48
2018-09-28T16:17:38.353Z,15.47
2018-09-28T16:20:08.069Z,15.47
2018-09-28T16:22:37.916Z,15.43
2018-09-28T16:25:09.252Z,15.42
2018-09-28T16:27:39.220Z,15.38
2018-09-28T16:30:09.718Z,15.32
2018-09-28T16:32:39.391Z,15.29
2018-09-28T16:35:09.277Z,15.33
2018-09-28T16:37:38.935Z,15.30
2018-09-28T16:40:08.859Z,15.22
2018-09-28T16:42:38.445Z,15.18
2018-09-28T16:45:08.442Z,15.09
2018-09-28T16:47:38.014Z,15.11
2018-09-28T16:50:08.261Z,15.03
2018-09-28T16:52:38.030Z,14.97
2018-09-28T16:55:07.555Z,14.94
2018-09-28T16:57:37.153Z,14.88
2018-09-28T17:00:06.878Z,14.86
2018-09-28T17:02:36.572Z,14.75
2018-09-28T17:05:06.454Z,14.74
2018-09-28T17:07:36.077Z,14.69
2018-09-28T17:10:06.347Z,14.62
2018-09-28T17:12:36.134Z,14.56
2018-09-28T17:15:06.399Z,14.53
2018-09-28T17:17:36.041Z,14.50
2018-09-28T17:20:05.667Z,14.48
2018-09-28T17:22:35.229Z,14.43
2018-09-28T17:25:05.140Z,14.36
2018-09-28T17:27:34.695Z,14.33
2018-09-28T17:30:04.386Z,14.19
2018-09-28T17:32:34.128Z,14.19
2018-09-28T17:35:04.524Z,14.19
2018-09-28T17:37:34.369Z,14.14
2018-09-28T17:40:04.318Z,14.09
2018-09-28T17:42:33.913Z,14.05
2018-09-28T17:45:03.578Z,14.00
2018-09-28T17:47:33.150Z,13.95
2018-09-28T17:50:03.981Z,13.96
2018-09-28T17:52:33.501Z,13.90
2018-09-28T17:55:03.039Z,13.84
2018-09-28T17:57:32.537Z,13.81
2018-09-28T18:00:03.259Z,13.76
2018-09-28T18:02:33.357Z,13.72
2018-09-28T18:05:03.710Z,13.65
2018-09-28T18:07:33.293Z,13.61
2018-09-28T18:10:02.901Z,13.54
2018-09-28T18:12:32.729Z,13.48
2018-09-28T18:15:02.402Z,13.45
2018-09-28T18:17:32.044Z,13.40
2018-09-28T18:20:01.638Z,13.36
2018-09-28T18:22:31.362Z,13.29
2018-09-28T18:25:01.021Z,13.26
2018-09-28T18:27:30.629Z,13.21
2018-09-28T18:30:00.143Z,13.20
2018-09-28T18:32:29.673Z,13.16
2018-09-28T18:34:59.168Z,13.13
2018-09-28T18:37:28.981Z,13.08
2018-09-28T18:39:58.625Z,13.03
2018-09-28T18:42:28.253Z,13.00
2018-09-28T18:44:57.846Z,12.98
2018-09-28T18:47:28.511Z,12.92
2018-09-28T18:49:58.080Z,12.93
2018-09-28T18:52:27.609Z,12.85
2018-09-28T18:54:57.254Z,12.79
2018-09-28T18:57:26.822Z,12.74
2018-09-28T18:59:56.840Z,12.65
2018-09-28T19:02:26.455Z,12.61
2018-09-28T19:04:56.362Z,12.60
2018-09-28T19:07:25.889Z,12.61
2018-09-28T19:09:55.510Z,12.62
2018-09-28T19:12:25.224Z,12.59
2018-09-28T19:14:55.247Z,12.58
2018-09-28T19:17:24.783Z,12.53
2018-09-28T19:19:54.419Z,12.52
2018-09-28T19:22:27.089Z,12.52
2018-09-28T19:24:56.600Z,12.54
2018-09-28T19:27:26.184Z,12.55
2018-09-28T19:29:55.806Z,12.52
2018-09-28T19:32:25.350Z,12.49
2018-09-28T19:34:55.686Z,12.47
2018-09-28T19:37:25.231Z,12.46
2018-09-28T19:39:55.402Z,12.42
2018-09-28T19:42:24.954Z,12.45
2018-09-28T19:44:54.507Z,12.40
2018-09-28T19:47:24.879Z,12.35
2018-09-28T19:49:54.563Z,12.30
2018-09-28T19:52:24.587Z,12.28
2018-09-28T19:54:54.077Z,12.23
2018-09-28T19:57:23.618Z,12.17
2018-09-28T19:59:53.170Z,12.13
2018-09-28T20:02:22.722Z,12.08
2018-09-28T20:04:52.258Z,12.03
2018-09-28T20:07:21.782Z,12.05
2018-09-28T20:09:51.326Z,12.07
2018-09-28T20:12:20.889Z,12.01
2018-09-28T20:14:50.433Z,11.94
2018-09-28T20:17:19.953Z,11.97
2018-09-28T20:19:49.594Z,11.98
2018-09-28T20:22:19.196Z,11.95
2018-09-28T20:24:48.735Z,11.92
2018-09-28T20:27:18.271Z,11.83
2018-09-28T20:29:48.417Z,11.74
2018-09-28T20:32:18.058Z,11.64
2018-09-28T20:34:47.595Z,11.57
2018-09-28T20:37:17.162Z,11.52
2018-09-28T20:39:46.652Z,11.47
2018-09-28T20:42:16.204Z,11.42
2018-09-28T20:44:45.821Z,11.45
2018-09-28T20:47:16.011Z,11.40
2018-09-28T20:49:45.625Z,11.39
2018-09-28T20:52:15.127Z,11.33
2018-09-28T20:54:44.737Z,11.31
2018-09-28T20:57:14.308Z,11.28
2018-09-28T20:59:43.840Z,11.25
2018-09-28T21:02:13.389Z,11.27
2018-09-28T21:04:42.933Z,11.25
2018-09-28T21:07:13.365Z,11.25
2018-09-28T21:09:42.893Z,11.24
2018-09-28T21:12:12.459Z,11.18
2018-09-28T21:14:42.018Z,11.15
2018-09-28T21:17:11.527Z,11.11
2018-09-28T21:19:41.103Z,11.10
2018-09-28T21:22:11.060Z,11.04
2018-09-28T21:24:40.604Z,11.03
2018-09-28T21:27:10.376Z,10.97
2018-09-28T21:29:40.123Z,10.91
2018-09-28T21:32:09.656Z,10.92
2018-09-28T21:34:39.154Z,10.89
2018-09-28T21:37:08.721Z,10.83
2018-09-28T21:39:38.241Z,10.73
2018-09-28T21:42:07.818Z,10.70
2018-09-28T21:44:37.386Z,10.71
2018-09-28T21:47:07.202Z,10.71
2018-09-28T21:49:36.904Z,10.74
2018-09-28T21:52:06.411Z,10.73
2018-09-28T21:54:35.913Z,10.68
2018-09-28T21:57:05.491Z,10.64
2018-09-28T21:59:34.982Z,10.54
2018-09-28T22:02:04.882Z,10.56
2018-09-28T22:04:34.456Z,10.49
2018-09-28T22:07:04.008Z,10.44
2018-09-28T22:09:33.996Z,10.30
2018-09-28T22:12:03.493Z,10.29
2018-09-28T22:14:33.214Z,10.27
2018-09-28T22:17:02.693Z,10.27
2018-09-28T22:19:32.231Z,10.25
2018-09-28T22:22:01.886Z,10.18
2018-09-28T22:24:31.341Z,10.11
2018-09-28T22:27:01.010Z,10.01
2018-09-28T22:29:30.531Z,9.68
2018-09-28T22:32:00.132Z,9.94
2018-09-28T22:34:29.665Z,9.95
2018-09-28T22:36:59.200Z,9.93
2018-09-28T22:39:28.753Z,9.90
2018-09-28T22:41:58.341Z,9.90
2018-09-28T22:44:27.814Z,9.89
2018-09-28T22:46:57.457Z,9.89
2018-09-28T22:49:26.992Z,9.86
2018-09-28T22:51:56.556Z,9.86
2018-09-28T22:54:26.130Z,9.79
2018-09-28T22:56:55.716Z,9.71
2018-09-28T22:59:25.371Z,9.68
2018-09-28T23:01:54.896Z,9.57
2018-09-28T23:04:24.461Z,9.55
2018-09-28T23:06:53.989Z,9.50
2018-09-28T23:09:23.630Z,9.46
2018-09-28T23:11:53.140Z,9.37
2018-09-28T23:14:22.758Z,9.18
2018-09-28T23:16:52.274Z,9.14
2018-09-28T23:19:21.784Z,9.17
2018-09-28T23:21:51.433Z,9.17
2018-09-28T23:24:21.422Z,9.04
2018-09-28T23:26:51.057Z,9.01
2018-09-28T23:29:21.469Z,9.05
2018-09-28T23:31:51.001Z,9.06
2018-09-28T23:34:20.550Z,9.01
2018-09-28T23:36:50.030Z,8.98
2018-09-28T23:39:19.557Z,8.97
2018-09-28T23:41:49.093Z,8.95
2018-09-28T23:44:19.015Z,8.93
2018-09-28T23:46:48.707Z,8.88
2018-09-28T23:49:19.275Z,8.82
2018-09-28T23:51:48.848Z,8.69
2018-09-28T23:54:18.371Z,8.72
2018-09-28T23:56:48.046Z,8.68
2018-09-28T23:59:18.215Z,8.66
